createdAt,value
2023-04-28T00:04:24.093Z,7.32
2023-04-28T00:09:20.117Z,7.82
2023-04-28T00:14:16.302Z,7.78
2023-04-28T00:19:10.664Z,6.30
2023-04-28T00:24:04.156Z,7.70
2023-04-28T00:29:09.913Z,5.78
2023-04-28T00:34:22.227Z,7.85
2023-04-28T00:39:16.917Z,6.93
2023-04-28T00:44:37.016Z,6.25
2023-04-28T00:49:46.141Z,6.40
2023-04-28T00:54:39.622Z,5.95
2023-04-28T01:05:02.766Z,6.07
2023-04-28T01:09:59.350Z,6.00
2023-04-28T01:14:57.568Z,6.03
2023-04-28T01:19:50.945Z,7.03
2023-04-28T01:24:45.973Z,8.25
2023-04-28T01:29:41.050Z,5.55
2023-04-28T01:34:55.937Z,5.53
2023-04-28T01:39:50.870Z,6.45
2023-04-28T01:45:00.096Z,8.48
2023-04-28T01:50:50.334Z,7.03
2023-04-28T01:56:25.968Z,5.82
2023-04-28T02:01:25.523Z,6.53
2023-04-28T02:06:26.546Z,7.72
2023-04-28T02:11:23.632Z,7.40
2023-04-28T02:16:49.546Z,6.88
2023-04-28T02:21:48.885Z,8.75
2023-04-28T02:26:47.073Z,7.97
2023-04-28T02:32:05.667Z,6.07
2023-04-28T02:44:00.177Z,7.57
2023-04-28T02:57:01.940Z,10.23
2023-04-28T03:02:17.979Z,9.75
2023-04-28T03:07:16.609Z,9.23
2023-04-28T03:12:11.368Z,10.73
2023-04-28T03:17:04.761Z,10.45
2023-04-28T03:21:58.138Z,7.78
2023-04-28T03:26:51.344Z,9.40
2023-04-28T03:31:46.137Z,11.65
2023-04-28T03:36:39.703Z,8.50
2023-04-28T03:41:40.085Z,13.23
2023-04-28T03:46:53.372Z,14.77
2023-04-28T03:51:46.828Z,11.13
2023-04-28T03:56:41.532Z,12.68
2023-04-28T04:01:36.054Z,13.32
2023-04-28T04:06:30.913Z,8.95
2023-04-28T04:11:24.225Z,9.57
2023-04-28T04:16:17.758Z,10.48
2023-04-28T04:21:10.955Z,15.13
2023-04-28T04:26:05.842Z,13.50
2023-04-28T04:30:59.750Z,12.95
2023-04-28T04:35:53.140Z,13.88
2023-04-28T04:40:46.352Z,14.48
2023-04-28T04:45:41.068Z,10.32
2023-04-28T04:50:34.372Z,9.70
2023-04-28T04:55:28.736Z,14.90
2023-04-28T05:00:24.000Z,10.10
2023-04-28T05:05:22.457Z,7.97
2023-04-28T05:10:42.563Z,10.23
2023-04-28T05:15:36.220Z,7.13
2023-04-28T05:20:54.150Z,12.10
2023-04-28T05:25:47.543Z,9.05
2023-04-28T05:30:41.424Z,9.35
2023-04-28T05:35:37.553Z,9.15
2023-04-28T05:40:32.649Z,9.30
2023-04-28T05:45:27.076Z,7.53
2023-04-28T05:50:21.785Z,11.10
2023-04-28T05:55:17.071Z,8.23
2023-04-28T06:00:35.820Z,6.85
2023-04-28T06:05:29.786Z,12.10
2023-04-28T06:10:28.434Z,14.07
2023-04-28T06:15:23.184Z,9.45
2023-04-28T06:20:28.309Z,7.22
2023-04-28T06:25:21.774Z,9.05
2023-04-28T06:30:21.065Z,10.68
2023-04-28T06:35:17.243Z,11.30
2023-04-28T06:40:12.207Z,7.32
2023-04-28T06:45:10.871Z,8.75
2023-04-28T06:50:04.966Z,7.93
2023-04-28T06:55:03.623Z,6.07
2023-04-28T06:59:57.143Z,10.05
2023-04-28T07:04:50.912Z,33.33
2023-04-28T07:09:46.830Z,6.55
2023-04-28T07:14:41.897Z,5.65
2023-04-28T07:19:36.975Z,7.97
2023-04-28T07:24:30.906Z,6.80
2023-04-28T07:29:24.338Z,6.93
2023-04-28T07:34:19.152Z,7.00
2023-04-28T07:39:12.630Z,8.25
2023-04-28T07:44:06.716Z,9.45
2023-04-28T07:49:04.926Z,7.63
2023-04-28T07:54:00.502Z,5.00
2023-04-28T07:58:54.072Z,5.35
2023-04-28T08:03:48.162Z,6.72
2023-04-28T08:08:47.548Z,7.05
2023-04-28T08:13:42.357Z,4.90
2023-04-28T08:18:35.854Z,5.70
2023-04-28T08:23:32.445Z,6.85
2023-04-28T08:28:31.569Z,5.22
2023-04-28T08:33:29.594Z,8.63
2023-04-28T08:38:25.834Z,7.40
2023-04-28T08:43:24.393Z,9.23
2023-04-28T08:48:31.571Z,5.00
2023-04-28T08:53:32.449Z,5.22
2023-04-28T08:58:36.481Z,5.35
2023-04-28T09:03:38.023Z,5.35
2023-04-28T09:08:36.163Z,6.70
2023-04-28T09:13:29.609Z,6.53
2023-04-28T09:18:23.112Z,6.47
2023-04-28T09:23:22.671Z,5.85
2023-04-28T09:28:24.796Z,6.72
2023-04-28T09:33:18.397Z,6.45
2023-04-28T09:38:11.905Z,5.32
2023-04-28T09:43:26.738Z,6.93
2023-04-28T09:48:28.567Z,6.90
2023-04-28T09:53:24.763Z,4.47
2023-04-28T09:58:23.025Z,5.85
2023-04-28T10:03:21.874Z,5.07
2023-04-28T10:08:21.147Z,4.78
2023-04-28T10:13:14.868Z,6.15
2023-04-28T10:18:10.681Z,5.90
2023-04-28T10:23:27.794Z,4.80
2023-04-28T10:28:23.471Z,5.25
2023-04-28T10:33:30.289Z,5.75
2023-04-28T10:38:24.872Z,3.40
2023-04-28T10:43:40.688Z,5.60
2023-04-28T10:48:59.303Z,8.30
2023-04-28T10:54:20.681Z,6.68
2023-04-28T10:59:28.500Z,9.43
2023-04-28T11:04:24.587Z,6.38
2023-04-28T11:09:49.979Z,4.97
2023-04-28T11:14:46.767Z,5.38
2023-04-28T11:19:52.845Z,4.10
2023-04-28T11:24:58.133Z,10.25
2023-04-28T11:29:57.805Z,6.13
2023-04-28T11:34:54.447Z,5.68
2023-04-28T11:39:48.248Z,6.50
2023-04-28T11:44:55.436Z,5.88
2023-04-28T11:49:49.628Z,5.53
2023-04-28T11:54:44.799Z,6.40
2023-04-28T11:59:39.947Z,4.65
2023-04-28T12:04:38.108Z,6.22
2023-04-28T12:09:33.200Z,7.82
2023-04-28T12:14:28.192Z,9.13
2023-04-28T12:19:24.235Z,5.25
2023-04-28T12:24:21.975Z,7.03
2023-04-28T12:39:24.976Z,7.82
2023-04-28T12:44:18.461Z,6.13
2023-04-28T12:49:11.761Z,3.72
2023-04-28T12:54:07.039Z,5.45
2023-04-28T12:59:00.344Z,5.40
2023-04-28T13:03:53.870Z,5.63
2023-04-28T13:08:47.997Z,5.65
2023-04-28T13:13:43.093Z,5.30
2023-04-28T13:18:36.383Z,6.22
2023-04-28T13:23:29.627Z,5.72
2023-04-28T13:28:22.982Z,6.13
2023-04-28T13:33:20.644Z,4.00
2023-04-28T13:38:15.198Z,11.73
2023-04-28T13:43:08.442Z,6.03
2023-04-28T13:48:03.446Z,6.55
2023-04-28T13:52:58.812Z,6.90
2023-04-28T13:57:53.470Z,4.75
2023-04-28T14:02:49.746Z,4.70
2023-04-28T14:07:43.758Z,6.25
2023-04-28T14:12:38.819Z,8.05
2023-04-28T14:17:32.636Z,6.82
2023-04-28T14:22:27.948Z,5.82
2023-04-28T14:27:24.453Z,4.50
2023-04-28T14:32:21.843Z,4.53
2023-04-28T14:37:16.513Z,9.55
2023-04-28T14:42:10.090Z,6.90
2023-04-28T14:47:05.512Z,7.45
2023-04-28T14:52:02.968Z,6.93
2023-04-28T14:56:56.467Z,7.60
2023-04-28T15:01:50.765Z,4.88
2023-04-28T15:06:44.173Z,5.30
2023-04-28T15:11:38.867Z,7.32
2023-04-28T15:16:32.409Z,5.82
2023-04-28T15:21:29.017Z,8.10
2023-04-28T15:26:23.816Z,5.97
2023-04-28T15:31:18.576Z,5.43
2023-04-28T15:36:12.569Z,7.43
2023-04-28T15:41:06.119Z,5.85
2023-04-28T15:46:01.146Z,9.95
2023-04-28T15:50:58.668Z,7.10
2023-04-28T15:55:52.010Z,5.82
2023-04-28T16:00:46.604Z,7.55
2023-04-28T16:05:40.462Z,10.40
2023-04-28T16:10:35.073Z,11.07
2023-04-28T16:15:28.280Z,5.90
2023-04-28T16:20:21.702Z,10.27
2023-04-28T16:25:15.011Z,22.10
2023-04-28T16:30:12.229Z,14.57
2023-04-28T16:35:07.874Z,10.25
2023-04-28T16:40:01.536Z,7.90
2023-04-28T16:44:55.046Z,6.28
2023-04-28T16:49:50.861Z,7.57
2023-04-28T16:54:44.386Z,7.20
2023-04-28T16:59:37.776Z,10.52
2023-04-28T17:04:33.203Z,8.20
2023-04-28T17:09:28.189Z,13.20
2023-04-28T17:14:21.486Z,23.85
2023-04-28T17:19:14.978Z,28.17
2023-04-28T17:24:08.800Z,24.35
2023-04-28T17:29:03.520Z,14.23
2023-04-28T17:33:58.320Z,13.38
2023-04-28T17:38:52.412Z,17.67
2023-04-28T17:43:53.926Z,16.65
2023-04-28T17:48:49.291Z,10.70
2023-04-28T17:53:46.120Z,10.50
2023-04-28T17:58:51.608Z,11.32
2023-04-28T18:03:45.479Z,12.15
2023-04-28T18:08:42.750Z,18.77
2023-04-28T18:13:39.406Z,13.85
2023-04-28T18:18:35.534Z,14.95
2023-04-28T18:23:30.505Z,20.85
2023-04-28T18:28:29.883Z,34.70
2023-04-28T18:33:26.041Z,24.58
2023-04-28T18:38:20.491Z,23.92
2023-04-28T18:48:46.100Z,30.27
2023-04-28T18:53:39.597Z,32.13
2023-04-28T18:58:33.011Z,39.65
2023-04-28T19:03:34.342Z,26.23
2023-04-28T19:08:29.268Z,22.13
2023-04-28T19:13:26.906Z,19.83
2023-04-28T19:18:29.874Z,25.02
2023-04-28T19:23:23.380Z,21.20
2023-04-28T19:28:23.221Z,18.70
2023-04-28T19:33:21.930Z,20.77
2023-04-28T19:38:18.192Z,20.95
2023-04-28T19:43:16.048Z,24.42
2023-04-28T19:48:14.381Z,29.95
2023-04-28T19:53:08.399Z,27.42
2023-04-28T19:58:02.811Z,28.83
2023-04-28T20:03:02.532Z,31.02
2023-04-28T20:07:58.183Z,31.77
2023-04-28T20:12:51.760Z,38.58
2023-04-28T20:17:46.215Z,34.28
2023-04-28T20:22:41.350Z,24.75
2023-04-28T20:27:38.207Z,23.63
2023-04-28T20:32:35.198Z,26.67
2023-04-28T20:37:30.229Z,25.30
2023-04-28T20:42:27.238Z,22.92
2023-04-28T20:47:24.510Z,25.98
2023-04-28T20:52:21.983Z,25.83
2023-04-28T20:57:16.510Z,21.98
2023-04-28T21:02:10.483Z,21.10
2023-04-28T21:07:07.038Z,26.55
2023-04-28T21:12:11.026Z,24.85
2023-04-28T21:17:09.611Z,32.55
2023-04-28T21:22:05.741Z,34.38
2023-04-28T21:27:02.931Z,34.08
2023-04-28T21:31:56.436Z,29.60
2023-04-28T21:36:52.788Z,27.00
2023-04-28T21:41:50.519Z,14.23
2023-04-28T21:46:44.921Z,11.30
2023-04-28T21:51:51.056Z,8.95
2023-04-28T21:56:44.399Z,10.98
2023-04-28T22:01:41.793Z,11.15
2023-04-28T22:06:37.584Z,8.23
2023-04-28T22:11:33.565Z,10.02
2023-04-28T22:16:31.353Z,7.78
2023-04-28T22:21:29.900Z,12.57
2023-04-28T22:26:24.463Z,8.70
2023-04-28T22:31:20.368Z,6.55
2023-04-28T22:36:19.334Z,10.95
2023-04-28T22:42:23.111Z,8.95
2023-04-28T22:47:21.963Z,8.38
2023-04-28T22:52:41.200Z,9.32
2023-04-28T22:57:40.886Z,8.25
2023-04-28T23:02:46.553Z,8.75
2023-04-28T23:07:46.773Z,13.60
2023-04-28T23:12:43.993Z,10.20
2023-04-28T23:17:42.883Z,9.38
2023-04-28T23:22:36.319Z,12.35
2023-04-28T23:27:32.067Z,17.95
2023-04-28T23:32:27.087Z,16.92
2023-04-28T23:37:20.715Z,11.85
2023-04-28T23:42:18.838Z,14.68
2023-04-28T23:47:12.179Z,12.07
2023-04-28T23:52:09.593Z,12.20
2023-04-28T23:57:03.007Z,13.55
